createdAt,value
2022-09-26T00:02:40.719Z,5.20
2022-09-26T00:07:45.899Z,9.30
2022-09-26T00:12:49.595Z,12.10
2022-09-26T00:17:53.434Z,10.02
2022-09-26T00:22:58.498Z,10.23
2022-09-26T00:28:02.456Z,7.03
2022-09-26T00:33:06.104Z,7.65
2022-09-26T00:38:11.136Z,5.62
2022-09-26T00:43:29.977Z,8.10
2022-09-26T00:48:37.634Z,10.38
2022-09-26T00:53:48.035Z,8.73
2022-09-26T00:58:56.876Z,8.07
2022-09-26T01:04:02.654Z,6.12
2022-09-26T01:09:09.062Z,11.60
2022-09-26T01:14:14.234Z,8.40
2022-09-26T01:19:26.398Z,11.77
2022-09-26T01:24:48.504Z,9.15
2022-09-26T01:30:15.174Z,8.43
2022-09-26T01:35:36.738Z,7.57
2022-09-26T01:40:46.149Z,10.82
2022-09-26T01:45:55.180Z,4.68
2022-09-26T01:51:05.929Z,8.00
2022-09-26T01:56:14.530Z,6.57
2022-09-26T02:01:22.495Z,4.97
2022-09-26T02:06:33.859Z,8.73
2022-09-26T02:11:40.372Z,3.60
2022-09-26T02:16:49.339Z,7.45
2022-09-26T02:21:53.854Z,6.90
2022-09-26T02:26:57.816Z,4.20
2022-09-26T02:32:12.671Z,8.55
2022-09-26T02:37:17.516Z,7.25
2022-09-26T02:42:28.780Z,7.78
2022-09-26T02:47:48.877Z,7.30
2022-09-26T02:53:06.330Z,9.15
2022-09-26T03:03:24.578Z,5.78
2022-09-26T03:08:31.873Z,4.87
2022-09-26T03:13:38.184Z,5.77
2022-09-26T03:18:51.205Z,5.35
2022-09-26T03:23:56.275Z,11.50
2022-09-26T03:29:00.063Z,8.70
2022-09-26T03:34:05.457Z,6.55
2022-09-26T03:39:09.413Z,8.73
2022-09-26T03:44:14.128Z,7.57
2022-09-26T03:49:22.813Z,6.82
2022-09-26T03:54:26.679Z,7.10
2022-09-26T03:59:30.640Z,12.82
2022-09-26T04:04:35.744Z,7.65
2022-09-26T04:09:39.762Z,8.60
2022-09-26T04:14:44.366Z,10.55
2022-09-26T04:19:49.570Z,9.80
2022-09-26T04:24:53.508Z,8.52
2022-09-26T04:29:58.841Z,8.90
2022-09-26T04:35:04.340Z,3.67
2022-09-26T04:40:10.590Z,6.32
2022-09-26T04:45:15.394Z,5.45
2022-09-26T04:50:20.490Z,9.82
2022-09-26T04:55:38.080Z,9.23
2022-09-26T05:00:45.617Z,9.20
2022-09-26T05:05:51.492Z,6.03
2022-09-26T05:10:57.403Z,11.48
2022-09-26T05:16:02.890Z,6.70
2022-09-26T05:21:09.078Z,3.60
2022-09-26T05:26:20.874Z,6.80
2022-09-26T05:31:26.325Z,5.55
2022-09-26T05:36:31.822Z,5.30
2022-09-26T05:41:35.704Z,10.20
2022-09-26T05:46:40.715Z,7.57
2022-09-26T05:51:48.309Z,7.22
2022-09-26T05:56:53.354Z,8.25
2022-09-26T06:01:59.871Z,15.85
2022-09-26T06:07:05.826Z,7.57
2022-09-26T06:12:09.522Z,11.52
2022-09-26T06:17:13.428Z,11.82
2022-09-26T06:22:18.607Z,14.40
2022-09-26T06:27:25.383Z,11.85
2022-09-26T06:32:29.269Z,11.05
2022-09-26T06:37:36.795Z,13.32
2022-09-26T06:42:41.258Z,8.63
2022-09-26T06:47:47.453Z,7.18
2022-09-26T06:52:55.261Z,9.40
2022-09-26T06:58:00.420Z,10.05
2022-09-26T07:03:08.382Z,5.75
2022-09-26T07:08:16.958Z,5.97
2022-09-26T07:13:22.178Z,8.32
2022-09-26T07:18:26.053Z,7.95
2022-09-26T07:23:31.961Z,6.72
2022-09-26T07:28:36.734Z,8.68
2022-09-26T07:33:41.388Z,8.55
2022-09-26T07:38:50.420Z,6.00
2022-09-26T07:49:36.470Z,6.78
2022-09-26T07:54:46.547Z,12.27
2022-09-26T07:59:54.309Z,12.30
2022-09-26T08:05:01.103Z,9.43
2022-09-26T08:10:08.683Z,9.82
2022-09-26T08:15:14.461Z,7.28
2022-09-26T08:20:18.385Z,6.22
2022-09-26T08:25:24.011Z,14.27
2022-09-26T08:30:31.364Z,9.55
2022-09-26T08:35:38.630Z,6.65
2022-09-26T08:40:54.559Z,21.02
2022-09-26T08:46:33.039Z,8.40
2022-09-26T08:51:45.328Z,9.23
2022-09-26T08:56:58.471Z,12.57
2022-09-26T09:02:06.171Z,9.18
2022-09-26T09:07:21.800Z,7.82
2022-09-26T09:12:39.443Z,10.02
2022-09-26T09:18:09.942Z,12.27
2022-09-26T09:23:41.169Z,9.77
2022-09-26T09:29:10.336Z,10.15
2022-09-26T09:34:25.263Z,12.88
2022-09-26T09:39:37.632Z,14.13
2022-09-26T09:44:47.801Z,9.88
2022-09-26T09:49:53.047Z,9.48
2022-09-26T09:55:05.845Z,9.02
2022-09-26T10:00:16.622Z,9.63
2022-09-26T10:05:33.683Z,13.10
2022-09-26T10:10:42.268Z,13.60
2022-09-26T10:15:59.682Z,10.75
2022-09-26T10:21:13.338Z,9.27
2022-09-26T10:26:26.579Z,7.78
2022-09-26T10:31:42.300Z,11.50
2022-09-26T10:36:47.729Z,9.20
2022-09-26T10:41:59.146Z,8.45
2022-09-26T10:47:08.461Z,5.47
2022-09-26T10:52:20.541Z,8.45
2022-09-26T10:57:29.496Z,12.85
2022-09-26T11:02:36.241Z,7.15
2022-09-26T11:07:43.937Z,9.10
2022-09-26T11:13:02.416Z,6.62
2022-09-26T11:18:17.823Z,5.43
2022-09-26T11:23:32.860Z,8.23
2022-09-26T11:28:44.970Z,6.07
2022-09-26T11:33:51.450Z,4.55
2022-09-26T11:38:57.937Z,5.68
2022-09-26T11:44:17.847Z,4.62
2022-09-26T11:49:46.216Z,5.78
2022-09-26T11:55:04.293Z,4.37
2022-09-26T12:00:24.471Z,4.20
2022-09-26T12:05:40.537Z,6.47
2022-09-26T12:10:54.682Z,4.62
2022-09-26T12:16:09.374Z,5.03
2022-09-26T12:21:26.259Z,4.20
2022-09-26T12:26:39.836Z,5.60
2022-09-26T12:31:59.697Z,5.95
2022-09-26T12:37:15.707Z,5.53
2022-09-26T12:42:41.379Z,2.90
2022-09-26T12:48:05.136Z,4.10
2022-09-26T12:53:37.380Z,4.70
2022-09-26T12:58:58.651Z,3.17
2022-09-26T13:04:33.060Z,4.50
2022-09-26T13:09:53.071Z,6.30
2022-09-26T13:15:08.795Z,6.03
2022-09-26T13:20:18.843Z,4.10
2022-09-26T13:25:31.019Z,5.82
2022-09-26T13:30:37.387Z,3.25
2022-09-26T13:35:47.149Z,3.33
2022-09-26T13:41:02.062Z,2.28
2022-09-26T13:46:15.711Z,1.60
2022-09-26T13:51:25.736Z,2.10
2022-09-26T13:56:49.100Z,3.17
2022-09-26T14:02:23.612Z,5.80
2022-09-26T14:08:08.193Z,4.97
2022-09-26T14:13:33.021Z,5.78
2022-09-26T14:18:59.169Z,3.03
2022-09-26T14:24:31.617Z,1.70
2022-09-26T14:29:51.312Z,2.65
2022-09-26T14:34:59.232Z,2.55
2022-09-26T14:40:50.064Z,2.10
2022-09-26T14:46:04.226Z,1.40
2022-09-26T14:51:26.047Z,1.48
2022-09-26T14:56:42.013Z,1.08
2022-09-26T15:01:47.899Z,2.28
2022-09-26T15:06:56.545Z,2.05
2022-09-26T15:12:03.640Z,0.75
2022-09-26T15:17:17.756Z,1.55
2022-09-26T15:22:25.305Z,1.75
2022-09-26T15:27:29.986Z,4.40
2022-09-26T15:32:35.688Z,1.45
2022-09-26T15:37:39.647Z,2.65
2022-09-26T15:43:02.947Z,2.55
2022-09-26T15:48:27.865Z,3.70
2022-09-26T15:53:37.602Z,6.85
2022-09-26T15:58:46.574Z,4.53
2022-09-26T16:03:58.188Z,7.55
2022-09-26T16:09:18.086Z,6.28
2022-09-26T16:14:26.929Z,11.70
2022-09-26T16:19:35.232Z,11.05
2022-09-26T16:24:38.965Z,8.88
2022-09-26T16:29:42.655Z,13.23
2022-09-26T16:34:48.861Z,11.98
2022-09-26T16:39:59.363Z,7.55
2022-09-26T16:45:06.358Z,10.02
2022-09-26T16:50:27.594Z,13.20
2022-09-26T16:55:35.797Z,13.00
2022-09-26T17:00:58.651Z,22.55
2022-09-26T17:06:03.852Z,15.60
2022-09-26T17:11:15.321Z,22.75
2022-09-26T17:16:20.592Z,21.15
2022-09-26T17:21:25.769Z,27.00
2022-09-26T17:26:31.563Z,18.27
2022-09-26T17:31:35.445Z,16.23
2022-09-26T17:36:44.837Z,19.02
2022-09-26T17:41:49.164Z,24.95
2022-09-26T17:46:55.743Z,27.87
2022-09-26T17:52:03.468Z,26.15
2022-09-26T17:57:09.957Z,16.10
2022-09-26T18:02:23.486Z,22.75
2022-09-26T18:07:35.252Z,24.80
2022-09-26T18:12:39.353Z,16.73
2022-09-26T18:17:43.625Z,21.20
2022-09-26T18:22:50.455Z,14.55
2022-09-26T18:27:56.706Z,14.02
2022-09-26T18:33:00.561Z,13.60
2022-09-26T18:38:05.860Z,17.30
2022-09-26T18:43:12.284Z,14.30
2022-09-26T18:48:23.474Z,18.00
2022-09-26T18:53:37.208Z,9.05
2022-09-26T18:58:41.266Z,7.20
2022-09-26T19:03:48.352Z,8.75
2022-09-26T19:08:58.460Z,11.60
2022-09-26T19:14:12.472Z,5.93
2022-09-26T19:19:17.195Z,10.55
2022-09-26T19:24:28.952Z,15.88
2022-09-26T19:29:36.846Z,17.05
2022-09-26T19:34:49.321Z,11.27
2022-09-26T19:39:55.875Z,13.07
2022-09-26T19:44:59.664Z,12.57
2022-09-26T19:50:04.021Z,9.32
2022-09-26T19:55:14.641Z,8.73
2022-09-26T20:00:19.378Z,10.52
2022-09-26T20:05:24.897Z,16.98
2022-09-26T20:10:29.928Z,8.07
2022-09-26T20:15:33.815Z,9.65
2022-09-26T20:20:38.233Z,9.57
2022-09-26T20:25:43.332Z,6.22
2022-09-26T20:30:54.006Z,4.90
2022-09-26T20:36:03.652Z,5.35
2022-09-26T20:41:13.870Z,6.87
2022-09-26T20:46:20.606Z,15.73
2022-09-26T20:51:27.829Z,3.80
2022-09-26T20:56:33.275Z,5.65
2022-09-26T21:01:37.114Z,6.15
2022-09-26T21:06:41.276Z,7.53
2022-09-26T21:11:48.139Z,7.57
2022-09-26T21:16:53.583Z,7.05
2022-09-26T21:21:57.708Z,6.57
2022-09-26T21:27:02.836Z,8.85
2022-09-26T21:32:09.187Z,10.95
2022-09-26T21:37:12.941Z,4.47
2022-09-26T21:42:18.036Z,8.00
2022-09-26T21:47:21.970Z,7.18
2022-09-26T21:52:29.497Z,11.82
2022-09-26T21:57:38.509Z,9.32
2022-09-26T22:02:42.447Z,8.57
2022-09-26T22:07:46.167Z,8.63
2022-09-26T22:12:52.312Z,8.00
2022-09-26T22:17:56.246Z,8.93
2022-09-26T22:22:59.922Z,6.87
2022-09-26T22:28:04.996Z,5.87
2022-09-26T22:33:08.693Z,5.93
2022-09-26T22:38:12.595Z,7.35
2022-09-26T22:43:17.576Z,9.07
2022-09-26T22:48:21.539Z,13.95
2022-09-26T22:53:25.235Z,11.18
2022-09-26T22:58:30.437Z,6.45
2022-09-26T23:03:34.404Z,6.47
2022-09-26T23:08:38.754Z,12.37
2022-09-26T23:13:43.777Z,8.38
2022-09-26T23:18:47.959Z,8.75
2022-09-26T23:23:53.351Z,12.60
2022-09-26T23:28:59.748Z,7.95
2022-09-26T23:34:03.581Z,10.30
2022-09-26T23:39:07.516Z,9.55
2022-09-26T23:44:12.551Z,8.65
2022-09-26T23:49:16.256Z,7.20
2022-09-26T23:54:20.100Z,4.93
2022-09-26T23:59:25.394Z,5.10
